METAR Data
IDs: Format: Raw Decoded Include TAF

Data at: 1557 UTC 18 Aug 2019

PATG 181556Z AUTO 33004KT 10SM CLR 09/07 A3024 RMK AO2 SLP336 T00890072
PATG 181456Z AUTO 36007KT 10SM CLR 08/07 A3026 RMK AO2 SLP340 T00830072 56013
PATG 181356Z AUTO 35007KT 10SM CLR 08/07 A3027 RMK AO2 SLP345 T00830072
PATG 181256Z AUTO 34007KT 10SM CLR 09/08 A3028 RMK AO2 SLP348 T00940078
PATG 181156Z AUTO 33007KT 10SM CLR 09/08 A3030 RMK AO2 SLP353 T00890078 10172 20083 58004
PATG 181056Z AUTO 34006KT 10SM CLR 09/09 A3031 RMK AO2 SLP357 T00940094
PATG 181010Z AUTO 34005KT 5SM BR SCT002 11/11 A3030 RMK AO2
PATG 181005Z AUTO 34005KT 1 1/4SM BR SCT002 11/11 A3031 RMK AO2
PATG 181000Z AUTO 34004KT 3/4SM BR VV002 11/11 A3031 RMK AO2
PATG 180956Z AUTO 34004KT 1 1/4SM BR SCT001 11/11 A3031 RMK AO2 VIS 1/2V5 SLP357 T01110111
PATG 180953Z AUTO 34004KT 3SM BR FEW001 11/11 A3031 RMK AO2
PATG 180946Z AUTO 36003KT 3SM BR CLR 11/11 A3031 RMK AO2
PATG 180936Z AUTO 33004KT 1 3/4SM BR CLR 11/11 A3031 RMK AO2
PATG 180919Z AUTO 34006KT 9SM SCT001 11/11 A3031 RMK AO2
PATG 180909Z AUTO 34006KT 4SM BR BKN001 11/11 A3032 RMK AO2
PATG 180907Z AUTO 35005KT 1 1/2SM BR BKN001 11/11 A3032 RMK AO2
PATG 180904Z AUTO 35005KT 3/4SM BR BKN001 11/11 A3032 RMK AO2
PATG 180856Z AUTO 33003KT 1/4SM FG BKN001 12/12 A3032 RMK AO2 SLP361 T01170117 402000117 51006
PATG 180846Z AUTO 36004KT 1/2SM FG VV001 12/12 A3031 RMK AO2 VIS 1/4V5
PATG 180839Z AUTO 33004KT 1 1/4SM BR FEW001 12/12 A3032 RMK AO2
PATG 180831Z AUTO 31004KT 1 1/2SM BR CLR 12/12 A3032 RMK AO2
PATG 180756Z AUTO 04003KT 10SM CLR 14/13 A3032 RMK AO2 SLP360 T01390133
PATG 180656Z AUTO 08004KT 10SM CLR 17/15 A3031 RMK AO2 SLP358 T01670150
PATG 180556Z AUTO 12009KT 10SM CLR 17/16 A3030 RMK AO2 SLP355 T01720156 10200 20172 55001
PATG 180456Z AUTO 18003KT 10SM CLR 18/16 A3030 RMK AO2 SLP354 T01830156
PATG 180356Z AUTO 20011KT 9SM CLR 18/16 A3030 RMK AO2 SLP355 T01830161
PATG 180256Z AUTO 22013KT 8SM CLR 19/16 A3030 RMK AO2 SLP356 T01890156 56015
PATG 180156Z AUTO 21012KT 10SM CLR 19/16 A3032 RMK AO2 SLP360 T01940156
PATG 180056Z AUTO 21012KT 10SM CLR 19/15 A3033 RMK AO2 SLP365 T01940150
PATG 172356Z AUTO 21011KT 10SM CLR 19/16 A3035 RMK AO2 SLP371 T01940156 10200 20161 58017
PATG 172256Z AUTO 20007KT 10SM CLR 20/15 A3037 RMK AO2 SLP378 T02000150
PATG 172156Z AUTO 20007KT 10SM FEW030 20/15 A3038 RMK AO2 SLP383 T02000150
PATG 172125Z AUTO 18005KT 10SM SCT030 19/15 A3039 RMK AO2
PATG 172056Z AUTO 20005KT 10SM OVC028 18/15 A3040 RMK AO2 SLP388 T01830150 57007
PATG 172037Z AUTO 13003KT 10SM BKN026 19/16 A3040 RMK AO2
PATG 171956Z AUTO 11005KT 10SM CLR 18/14 A3040 RMK AO2 SLP390 T01830144
PATG 171856Z AUTO 07004KT 10SM CLR 17/14 A3041 RMK AO2 SLP394 T01720144
PATG 171756Z AUTO 35004KT 10SM CLR 16/14 A3042 RMK AO2 SLP395 T01610139 10161 20133 57005
PATG 171656Z AUTO 36005KT 10SM CLR 16/13 A3043 RMK AO2 SLP398 T01610133
PATG 171556Z AUTO 29005KT 10SM SCT026 15/13 A3042 RMK AO2 SLP397 T01500133
PATG 171456Z AUTO 27004KT 10SM OVC026 14/13 A3043 RMK AO2 SLP400 T01390128 58001
PATG 171443Z AUTO 00000KT 10SM BKN026 14/13 A3043 RMK AO2
PATG 171419Z AUTO 28004KT 10SM SCT026 14/13 A3043 RMK AO2
PATG 171356Z AUTO 31004KT 10SM OVC026 15/13 A3044 RMK AO2 SLP400 T01500128
PATG 171339Z AUTO 30008KT 10SM BKN026 15/13 A3044 RMK AO2
PATG 171256Z AUTO 30006KT 10SM BKN060 14/12 A3044 RMK AO2 SLP401 T01440122
PATG 171156Z AUTO 30007KT 10SM CLR 13/12 A3044 RMK AO2 SLP401 T01330122 10161 20122 58004
PATG 171056Z AUTO 36004KT 10SM CLR 12/11 A3044 RMK AO2 SLP403 T01220111
PATG 170956Z AUTO 35005KT 10SM CLR 12/11 A3045 RMK AO2 SLP406 T01220111
PATG 170856Z AUTO 05004KT 10SM CLR 13/11 A3045 RMK AO2 SLP405 T01330111 402170083 55001
PATG 170756Z AUTO 31006KT 10SM CLR 14/11 A3044 RMK AO2 SLP403 T01390111
PATG 170656Z AUTO 29015KT 10SM CLR 14/11 A3043 RMK AO2 SLP400 T01440111
PATG 170556Z AUTO 29010KT 9SM CLR 16/12 A3045 RMK AO2 SLP405 T01610117 10217 20161 58001
PATG 170456Z AUTO 30009KT 10SM CLR 18/11 A3046 RMK AO2 SLP408 T01780111